createdAt,value
2017-10-19T00:00:45.885Z,138.80
2017-10-19T00:01:47.083Z,129.40
2017-10-19T00:02:46.331Z,139.10
2017-10-19T00:03:46.754Z,137.20
2017-10-19T00:04:46.999Z,142.40
2017-10-19T00:05:47.294Z,131.40
2017-10-19T00:06:47.534Z,152.90
2017-10-19T00:07:46.408Z,141.20
2017-10-19T00:08:46.709Z,135.80
2017-10-19T00:09:47.056Z,129.80
2017-10-19T00:10:46.366Z,136.20
2017-10-19T00:11:47.018Z,133.70
2017-10-19T00:12:48.034Z,148.70
2017-10-19T00:13:47.558Z,134.20
2017-10-19T00:14:46.729Z,126.30
2017-10-19T00:15:46.943Z,128.90
2017-10-19T00:16:47.460Z,124.40
2017-10-19T00:17:46.777Z,121.10
2017-10-19T00:18:47.391Z,121.70
2017-10-19T00:19:46.364Z,126.30
2017-10-19T00:20:46.156Z,125.30
2017-10-19T00:21:46.647Z,127.40
2017-10-19T00:22:47.194Z,122.30
2017-10-19T00:23:46.907Z,125.10
2017-10-19T00:24:47.324Z,121.50
2017-10-19T00:25:46.480Z,122.80
2017-10-19T00:26:46.595Z,121.30
2017-10-19T00:27:47.154Z,121.10
2017-10-19T00:28:46.680Z,123.30
2017-10-19T00:29:46.790Z,127.60
2017-10-19T00:30:47.207Z,121.50
2017-10-19T00:31:46.446Z,124.20
2017-10-19T00:32:46.988Z,119.00
2017-10-19T00:33:47.113Z,113.40
2017-10-19T00:34:46.883Z,121.20
2017-10-19T00:35:47.578Z,116.70
2017-10-19T00:36:46.699Z,118.00
2017-10-19T00:37:47.193Z,122.80
2017-10-19T00:38:46.253Z,111.00
2017-10-19T00:39:46.567Z,110.20
2017-10-19T00:40:46.804Z,110.80
2017-10-19T00:41:47.211Z,118.40
2017-10-19T00:42:46.698Z,115.90
2017-10-19T00:43:47.200Z,122.10
2017-10-19T00:44:46.487Z,113.70
2017-10-19T00:45:46.876Z,130.90
2017-10-19T00:46:47.973Z,112.20
2017-10-19T00:47:47.235Z,112.80
2017-10-19T00:48:46.893Z,118.90
2017-10-19T00:49:47.377Z,116.20
2017-10-19T00:50:46.965Z,113.10
2017-10-19T00:51:47.929Z,112.90
2017-10-19T00:52:47.267Z,108.90
2017-10-19T00:53:46.368Z,108.10
2017-10-19T00:54:46.514Z,110.50
2017-10-19T00:55:47.029Z,107.80
2017-10-19T00:56:47.420Z,107.60
2017-10-19T00:57:46.944Z,108.20
2017-10-19T00:58:47.141Z,108.30
2017-10-19T00:59:46.409Z,106.50
2017-10-19T01:00:46.914Z,104.80
2017-10-19T01:01:47.738Z,108.50
2017-10-19T01:02:46.910Z,101.50
2017-10-19T01:03:47.240Z,103.00
2017-10-19T01:04:46.768Z,104.10
2017-10-19T01:05:46.774Z,95.90
2017-10-19T01:06:46.986Z,102.50
2017-10-19T01:07:47.053Z,106.20
2017-10-19T01:08:46.150Z,100.90
2017-10-19T01:09:46.163Z,101.20
2017-10-19T01:10:46.720Z,97.00
2017-10-19T01:11:47.634Z,98.70
2017-10-19T01:12:47.247Z,101.70
2017-10-19T01:13:46.688Z,101.60
2017-10-19T01:14:47.101Z,101.50
2017-10-19T01:15:46.879Z,100.80
2017-10-19T01:16:47.458Z,99.00
2017-10-19T01:17:46.610Z,95.30
2017-10-19T01:18:47.236Z,94.50
2017-10-19T01:19:46.776Z,94.80
2017-10-19T01:20:47.371Z,91.70
2017-10-19T01:21:46.284Z,96.70
2017-10-19T01:22:46.643Z,97.90
2017-10-19T01:23:47.108Z,99.50
2017-10-19T01:24:46.862Z,99.30
2017-10-19T01:25:46.883Z,98.10
2017-10-19T01:26:47.360Z,96.90
2017-10-19T01:27:46.983Z,95.00
2017-10-19T01:28:47.153Z,96.50
2017-10-19T01:29:47.074Z,93.80
2017-10-19T01:30:46.652Z,91.40
2017-10-19T01:31:46.954Z,93.40
2017-10-19T01:32:47.016Z,96.50
2017-10-19T01:33:47.518Z,88.80
2017-10-19T01:34:47.014Z,94.50
2017-10-19T01:35:47.468Z,93.70
2017-10-19T01:36:47.057Z,89.40
2017-10-19T01:37:46.568Z,92.30
2017-10-19T01:38:46.568Z,90.80
2017-10-19T01:39:46.908Z,92.10
2017-10-19T01:40:47.021Z,92.80
2017-10-19T01:41:47.140Z,92.70
2017-10-19T01:42:46.803Z,94.60
2017-10-19T01:43:46.937Z,92.60
2017-10-19T01:44:46.886Z,88.90
2017-10-19T01:45:46.778Z,86.20
2017-10-19T01:46:47.308Z,89.90
2017-10-19T01:47:46.297Z,90.50
2017-10-19T01:48:47.413Z,85.20
2017-10-19T01:49:47.092Z,85.50
2017-10-19T01:50:46.673Z,86.80
2017-10-19T01:51:46.761Z,84.20
2017-10-19T01:52:47.142Z,84.70
2017-10-19T01:53:45.747Z,85.90
2017-10-19T01:54:46.791Z,83.60
2017-10-19T01:55:46.414Z,85.00
2017-10-19T01:56:46.626Z,83.60
2017-10-19T01:57:46.769Z,84.80
2017-10-19T01:58:47.565Z,85.60
2017-10-19T01:59:46.635Z,86.50
2017-10-19T02:00:46.815Z,82.00
2017-10-19T02:01:46.828Z,85.10
2017-10-19T02:02:46.614Z,81.90
2017-10-19T02:03:46.446Z,85.60
2017-10-19T02:04:46.254Z,86.40
2017-10-19T02:05:46.604Z,82.80
2017-10-19T02:06:46.647Z,79.90
2017-10-19T02:07:46.516Z,83.80
2017-10-19T02:08:46.705Z,84.50
2017-10-19T02:09:46.440Z,80.20
2017-10-19T02:10:46.173Z,83.30
2017-10-19T02:11:46.110Z,85.20
2017-10-19T02:12:46.152Z,83.40
2017-10-19T02:13:45.992Z,80.10
2017-10-19T02:14:46.002Z,81.10
2017-10-19T02:15:45.916Z,77.90
2017-10-19T02:16:47.217Z,78.00
2017-10-19T02:17:46.747Z,81.10
2017-10-19T02:18:46.655Z,83.20
2017-10-19T02:19:46.765Z,84.90
2017-10-19T02:20:46.553Z,81.80
2017-10-19T02:21:46.692Z,82.20
2017-10-19T02:22:46.851Z,83.90
2017-10-19T02:23:46.607Z,85.20
2017-10-19T02:24:47.024Z,79.90
2017-10-19T02:25:46.120Z,82.90
2017-10-19T02:26:46.172Z,79.90
2017-10-19T02:27:46.521Z,78.30
2017-10-19T02:28:47.172Z,80.30
2017-10-19T02:29:45.909Z,80.30
2017-10-19T02:30:46.075Z,81.20
2017-10-19T02:31:46.278Z,82.90
2017-10-19T02:32:46.096Z,79.70
2017-10-19T02:33:46.736Z,78.30
2017-10-19T02:34:47.045Z,80.60
2017-10-19T02:35:46.368Z,80.60
2017-10-19T02:36:46.130Z,76.00
2017-10-19T02:37:46.282Z,77.50
2017-10-19T02:38:47.421Z,76.20
2017-10-19T02:39:46.120Z,78.80
2017-10-19T02:40:46.425Z,74.60
2017-10-19T02:41:46.573Z,76.70
2017-10-19T02:42:46.471Z,72.60
2017-10-19T02:43:46.568Z,73.00
2017-10-19T02:44:46.815Z,73.80
2017-10-19T02:45:46.528Z,71.60
2017-10-19T02:46:46.337Z,71.30
2017-10-19T02:47:46.074Z,71.70
2017-10-19T02:48:45.874Z,70.20
2017-10-19T02:49:46.032Z,70.60
2017-10-19T02:50:46.304Z,70.90
2017-10-19T02:51:46.362Z,70.10
2017-10-19T02:52:46.811Z,70.20
2017-10-19T02:53:47.141Z,74.60
2017-10-19T02:54:46.646Z,72.90
2017-10-19T02:55:47.342Z,73.30
2017-10-19T02:56:46.072Z,72.50
2017-10-19T02:57:46.331Z,71.10
2017-10-19T02:58:45.888Z,68.30
2017-10-19T02:59:46.531Z,69.30
2017-10-19T03:00:46.660Z,68.60
2017-10-19T03:01:46.757Z,68.00
2017-10-19T03:02:46.316Z,74.40
2017-10-19T03:03:46.112Z,70.40
2017-10-19T03:04:45.886Z,71.20
2017-10-19T03:05:46.894Z,67.30
2017-10-19T03:06:45.696Z,68.30
2017-10-19T03:07:47.358Z,70.50
2017-10-19T03:08:46.211Z,71.80
2017-10-19T03:09:46.469Z,68.50
2017-10-19T03:10:46.248Z,67.80
2017-10-19T03:11:45.888Z,68.90
2017-10-19T03:12:46.595Z,67.60
2017-10-19T03:13:47.051Z,64.50
2017-10-19T03:14:45.988Z,69.90
2017-10-19T03:15:45.721Z,72.20
2017-10-19T03:16:46.272Z,71.70
2017-10-19T03:17:45.957Z,69.50
2017-10-19T03:18:45.790Z,71.80
2017-10-19T03:19:46.934Z,69.80
2017-10-19T03:20:47.020Z,68.10
2017-10-19T03:21:46.254Z,68.30
2017-10-19T03:22:46.686Z,66.10
2017-10-19T03:23:46.974Z,66.60
2017-10-19T03:24:45.837Z,64.60
2017-10-19T03:25:46.966Z,67.80
2017-10-19T03:26:46.555Z,66.20
2017-10-19T03:27:46.274Z,66.20
2017-10-19T03:28:46.051Z,68.10
2017-10-19T03:29:46.176Z,66.80
2017-10-19T03:30:45.879Z,66.80
2017-10-19T03:31:46.910Z,68.10
2017-10-19T03:32:46.111Z,68.90
2017-10-19T03:33:46.538Z,69.10
2017-10-19T03:34:46.308Z,68.10
2017-10-19T03:35:46.022Z,68.50
2017-10-19T03:36:46.651Z,67.70
2017-10-19T03:37:46.745Z,67.50
2017-10-19T03:38:46.935Z,65.30
2017-10-19T03:39:46.106Z,66.40
2017-10-19T03:40:46.450Z,66.10
2017-10-19T03:41:46.678Z,61.80
2017-10-19T03:42:46.704Z,62.70
2017-10-19T03:43:46.832Z,64.80
2017-10-19T03:44:46.975Z,67.00
2017-10-19T03:45:45.706Z,65.70
2017-10-19T03:46:46.966Z,65.90
2017-10-19T03:47:46.167Z,64.00
2017-10-19T03:48:46.072Z,66.50
2017-10-19T03:49:46.142Z,64.20
2017-10-19T03:50:46.055Z,63.30
2017-10-19T03:51:45.859Z,63.50
2017-10-19T03:52:46.314Z,64.30
2017-10-19T03:53:46.370Z,66.50
2017-10-19T03:54:46.412Z,62.60
2017-10-19T03:55:46.121Z,62.90
2017-10-19T03:56:46.371Z,64.40
2017-10-19T03:57:46.145Z,63.60
2017-10-19T03:58:45.826Z,62.80
2017-10-19T03:59:46.781Z,61.80
2017-10-19T04:00:47.037Z,63.50
2017-10-19T04:01:47.154Z,59.50
2017-10-19T04:02:45.907Z,62.60
2017-10-19T04:03:45.641Z,64.70
2017-10-19T04:04:46.934Z,62.30
2017-10-19T04:05:46.112Z,60.30
2017-10-19T04:06:45.774Z,61.80
2017-10-19T04:07:46.550Z,63.00
2017-10-19T04:08:46.658Z,61.50
2017-10-19T04:09:46.899Z,60.50
2017-10-19T04:10:46.901Z,64.90
2017-10-19T04:11:47.077Z,62.60
2017-10-19T04:12:45.782Z,63.10
2017-10-19T04:13:46.625Z,65.20
2017-10-19T04:14:46.414Z,63.00
2017-10-19T04:15:46.152Z,66.00
2017-10-19T04:16:46.694Z,67.20
2017-10-19T04:17:46.803Z,64.40
2017-10-19T04:18:46.618Z,66.10
2017-10-19T04:19:46.350Z,64.70
2017-10-19T04:20:46.040Z,62.40
2017-10-19T04:21:46.099Z,64.60
2017-10-19T04:22:46.221Z,65.50
2017-10-19T04:23:45.844Z,64.10
2017-10-19T04:24:45.715Z,66.10
2017-10-19T04:25:46.381Z,65.80
2017-10-19T04:26:47.277Z,65.30
2017-10-19T04:27:46.324Z,63.50
2017-10-19T04:28:46.415Z,66.50
2017-10-19T04:29:46.803Z,65.70
2017-10-19T04:30:46.953Z,65.00
2017-10-19T04:31:46.170Z,62.10
2017-10-19T04:32:46.635Z,61.70
2017-10-19T04:33:46.623Z,63.60
2017-10-19T04:34:46.419Z,60.70
2017-10-19T04:35:46.854Z,59.20
2017-10-19T04:36:46.781Z,59.70
2017-10-19T04:37:46.565Z,60.40
2017-10-19T04:38:47.178Z,60.90
2017-10-19T04:39:46.349Z,59.30
2017-10-19T04:40:46.464Z,60.50
2017-10-19T04:41:47.848Z,58.00
2017-10-19T04:42:48.450Z,57.50
2017-10-19T04:43:46.586Z,60.10
2017-10-19T04:44:46.478Z,57.00
2017-10-19T04:45:46.729Z,56.80
2017-10-19T04:46:46.459Z,58.60
2017-10-19T04:47:46.800Z,54.80
2017-10-19T04:48:46.419Z,57.40
2017-10-19T04:49:46.219Z,56.90
2017-10-19T04:50:46.595Z,55.50
2017-10-19T04:51:46.741Z,57.10
2017-10-19T04:52:46.579Z,56.20
2017-10-19T04:53:46.519Z,58.30
2017-10-19T04:54:46.706Z,57.60
2017-10-19T04:55:46.813Z,56.10
2017-10-19T04:56:46.617Z,58.00
2017-10-19T04:57:46.676Z,58.00
2017-10-19T04:58:47.450Z,59.30
2017-10-19T04:59:46.064Z,60.70
2017-10-19T05:00:46.080Z,59.80
2017-10-19T05:01:47.853Z,58.80
2017-10-19T05:02:46.203Z,59.90
2017-10-19T05:03:45.886Z,61.70
2017-10-19T05:04:46.192Z,62.20
2017-10-19T05:05:46.099Z,61.80
2017-10-19T05:06:46.078Z,62.70
2017-10-19T05:07:45.745Z,63.10
2017-10-19T05:08:45.866Z,65.70
2017-10-19T05:09:45.680Z,65.70
2017-10-19T05:10:46.884Z,66.60
2017-10-19T05:11:46.312Z,66.50
2017-10-19T05:12:45.522Z,67.10
2017-10-19T05:13:46.717Z,66.20
2017-10-19T05:14:46.413Z,64.70
2017-10-19T05:15:46.513Z,60.90
2017-10-19T05:16:47.711Z,61.00
2017-10-19T05:17:46.563Z,61.60
2017-10-19T05:18:46.810Z,61.20
2017-10-19T05:19:46.836Z,61.60
2017-10-19T05:20:46.444Z,61.80
2017-10-19T05:21:46.696Z,60.80
2017-10-19T05:22:46.844Z,60.80
2017-10-19T05:23:46.807Z,59.30
2017-10-19T05:24:45.720Z,57.40
2017-10-19T05:25:46.341Z,58.00
2017-10-19T05:26:46.095Z,57.10
2017-10-19T05:27:46.154Z,57.20
2017-10-19T05:28:46.412Z,56.60
2017-10-19T05:29:46.472Z,59.50
2017-10-19T05:30:46.770Z,57.70
2017-10-19T05:31:47.015Z,61.20
2017-10-19T05:32:46.123Z,58.90
2017-10-19T05:33:46.812Z,61.00
2017-10-19T05:34:45.628Z,57.90
2017-10-19T05:35:46.925Z,58.00
2017-10-19T05:36:45.682Z,59.90
2017-10-19T05:37:46.500Z,59.40
2017-10-19T05:38:46.972Z,58.40
2017-10-19T05:39:45.892Z,60.80
2017-10-19T05:40:46.097Z,61.10
2017-10-19T05:41:46.491Z,60.60
2017-10-19T05:42:46.363Z,60.60
2017-10-19T05:43:47.152Z,60.00
2017-10-19T05:44:46.387Z,59.50
2017-10-19T05:45:47.180Z,59.10
2017-10-19T05:46:46.617Z,58.60
2017-10-19T05:47:46.985Z,58.90
2017-10-19T05:48:46.464Z,57.00
2017-10-19T05:49:47.620Z,57.70
2017-10-19T05:50:45.743Z,58.10
2017-10-19T05:51:46.059Z,58.60
2017-10-19T05:52:46.255Z,59.20
2017-10-19T05:53:46.551Z,56.00
2017-10-19T05:54:45.819Z,55.50
2017-10-19T05:55:46.716Z,58.60
2017-10-19T05:56:46.762Z,56.70
2017-10-19T05:57:46.179Z,56.40
2017-10-19T05:58:46.967Z,60.10
2017-10-19T05:59:46.362Z,58.90
2017-10-19T06:00:47.483Z,60.40
2017-10-19T06:01:46.992Z,60.30
2017-10-19T06:02:45.863Z,60.70
2017-10-19T06:03:45.934Z,60.50
2017-10-19T06:04:46.279Z,60.30
2017-10-19T06:05:45.988Z,59.10
2017-10-19T06:06:46.375Z,60.90
2017-10-19T06:07:46.904Z,59.70
2017-10-19T06:08:45.762Z,58.30
2017-10-19T06:09:45.705Z,59.00
2017-10-19T06:10:46.144Z,59.40
2017-10-19T06:11:46.836Z,59.30
2017-10-19T06:12:46.452Z,59.50
2017-10-19T06:13:45.961Z,57.30
2017-10-19T06:14:46.039Z,56.80
2017-10-19T06:15:46.727Z,59.30
2017-10-19T06:16:45.647Z,57.70
2017-10-19T06:17:46.946Z,57.90
2017-10-19T06:18:46.288Z,59.00
2017-10-19T06:19:46.202Z,55.80
2017-10-19T06:20:46.637Z,53.90
2017-10-19T06:21:46.943Z,55.90
2017-10-19T06:22:46.028Z,57.80
2017-10-19T06:23:46.343Z,55.30
2017-10-19T06:24:46.190Z,57.60
2017-10-19T06:25:46.630Z,56.30
2017-10-19T06:26:46.697Z,56.90
2017-10-19T06:27:46.026Z,55.00
2017-10-19T06:28:46.938Z,55.30
2017-10-19T06:29:46.514Z,53.90
2017-10-19T06:30:46.542Z,52.50
2017-10-19T06:31:47.140Z,51.60
2017-10-19T06:32:46.710Z,51.50
2017-10-19T06:33:45.812Z,51.70
2017-10-19T06:34:46.725Z,49.80
2017-10-19T06:35:46.377Z,49.60
2017-10-19T06:36:46.427Z,50.00
2017-10-19T06:37:46.305Z,49.70
2017-10-19T06:38:46.418Z,50.20
2017-10-19T06:39:46.779Z,51.00
2017-10-19T06:40:45.795Z,51.10
2017-10-19T06:41:46.330Z,49.30
2017-10-19T06:42:46.015Z,48.80
2017-10-19T06:43:46.637Z,50.00
2017-10-19T06:44:46.810Z,48.90
2017-10-19T06:45:46.324Z,48.70
2017-10-19T06:46:46.833Z,47.50
2017-10-19T06:47:45.855Z,46.90
2017-10-19T06:48:47.112Z,46.80
2017-10-19T06:49:47.219Z,46.00
2017-10-19T06:50:46.699Z,47.10
2017-10-19T06:51:46.584Z,45.50
2017-10-19T06:52:46.630Z,45.30
2017-10-19T06:53:46.177Z,48.50
2017-10-19T06:54:46.724Z,49.10
2017-10-19T06:55:46.334Z,48.10
2017-10-19T06:56:46.345Z,49.10
2017-10-19T06:57:46.279Z,47.90
2017-10-19T06:58:46.344Z,47.90
2017-10-19T06:59:46.594Z,45.10
2017-10-19T07:00:46.540Z,46.80
2017-10-19T07:01:46.202Z,46.40
2017-10-19T07:02:46.529Z,46.70
2017-10-19T07:03:46.556Z,46.70
2017-10-19T07:04:46.293Z,44.10
2017-10-19T07:05:46.905Z,42.90
2017-10-19T07:06:46.611Z,42.90
2017-10-19T07:07:46.584Z,41.90
2017-10-19T07:08:46.788Z,41.20
2017-10-19T07:09:46.082Z,40.90
2017-10-19T07:10:46.570Z,40.80
2017-10-19T07:11:47.060Z,42.20
2017-10-19T07:12:45.956Z,42.70
2017-10-19T07:13:46.450Z,44.00
2017-10-19T07:14:46.522Z,43.10
2017-10-19T07:15:46.800Z,42.60
2017-10-19T07:16:46.136Z,45.40
2017-10-19T07:17:46.185Z,40.70
2017-10-19T07:18:46.784Z,42.00
2017-10-19T07:19:46.084Z,41.10
2017-10-19T07:20:46.219Z,42.50
2017-10-19T07:21:46.603Z,42.30
2017-10-19T07:22:46.018Z,43.30
2017-10-19T07:23:46.029Z,41.90
2017-10-19T07:24:46.971Z,41.40
2017-10-19T07:25:46.959Z,41.10
2017-10-19T07:26:46.370Z,41.40
2017-10-19T07:27:46.513Z,42.10
2017-10-19T07:28:46.435Z,41.60
2017-10-19T07:29:46.417Z,40.60
2017-10-19T07:30:46.798Z,39.90
2017-10-19T07:31:45.769Z,40.20
2017-10-19T07:32:46.292Z,39.70
2017-10-19T07:33:46.196Z,40.20
2017-10-19T07:34:46.219Z,39.50
2017-10-19T07:35:46.482Z,39.30
2017-10-19T07:36:46.857Z,38.30
2017-10-19T07:37:45.770Z,38.20
2017-10-19T07:38:45.713Z,39.60
2017-10-19T07:39:45.996Z,38.30
2017-10-19T07:40:46.489Z,39.30
2017-10-19T07:41:46.289Z,40.20
2017-10-19T07:42:46.234Z,40.30
2017-10-19T07:43:46.328Z,39.50
2017-10-19T07:44:46.915Z,37.30
2017-10-19T07:45:46.192Z,37.80
2017-10-19T07:46:45.802Z,38.00
2017-10-19T07:47:46.049Z,37.90
2017-10-19T07:48:46.534Z,39.70
2017-10-19T07:49:46.038Z,39.20
2017-10-19T07:50:50.241Z,38.30
2017-10-19T07:51:46.983Z,39.50
2017-10-19T07:52:46.300Z,39.10
2017-10-19T07:53:46.851Z,37.80
2017-10-19T07:54:46.426Z,38.40
2017-10-19T07:55:46.978Z,38.30
2017-10-19T07:56:46.190Z,39.20
2017-10-19T07:57:46.067Z,38.70
2017-10-19T07:58:46.884Z,37.70
2017-10-19T07:59:45.914Z,37.70
2017-10-19T08:00:45.934Z,37.50
2017-10-19T08:01:46.521Z,37.10
2017-10-19T08:02:45.715Z,37.80
2017-10-19T08:03:45.696Z,35.40
2017-10-19T08:04:45.716Z,36.30
2017-10-19T08:05:46.267Z,36.40
2017-10-19T08:06:46.534Z,36.00
2017-10-19T08:07:46.816Z,37.30
2017-10-19T08:08:46.252Z,35.60
2017-10-19T08:09:46.646Z,37.90
2017-10-19T08:10:47.052Z,37.00
2017-10-19T08:11:46.375Z,37.30
2017-10-19T08:12:46.702Z,37.20
2017-10-19T08:13:46.772Z,38.30
2017-10-19T08:14:45.830Z,36.40
2017-10-19T08:16:16.955Z,36.20
2017-10-19T08:16:46.715Z,36.90
2017-10-19T08:17:47.019Z,35.90
2017-10-19T08:18:46.607Z,38.50
2017-10-19T08:19:46.227Z,36.70
2017-10-19T08:20:46.970Z,36.50
2017-10-19T08:21:46.466Z,34.70
2017-10-19T08:22:46.657Z,33.00
2017-10-19T08:23:45.855Z,34.40
2017-10-19T08:24:46.288Z,35.80
2017-10-19T08:25:46.381Z,35.70
2017-10-19T08:26:47.089Z,35.50
2017-10-19T08:27:46.748Z,33.30
2017-10-19T08:28:45.952Z,34.80
2017-10-19T08:29:45.997Z,34.50
2017-10-19T08:30:46.651Z,34.00
2017-10-19T08:31:45.803Z,34.20
2017-10-19T08:32:46.550Z,32.90
2017-10-19T08:33:46.183Z,33.90
2017-10-19T08:34:47.155Z,32.20
2017-10-19T08:35:46.380Z,33.70
2017-10-19T08:36:46.972Z,33.60
2017-10-19T08:37:46.265Z,32.50
2017-10-19T08:38:46.273Z,31.60
2017-10-19T08:39:46.759Z,30.00
2017-10-19T08:40:46.425Z,27.60
2017-10-19T08:41:46.794Z,29.80
2017-10-19T08:42:46.308Z,28.40
2017-10-19T08:43:46.683Z,29.00
2017-10-19T08:44:46.348Z,28.90
2017-10-19T08:45:47.023Z,27.00
2017-10-19T08:46:46.784Z,27.60
2017-10-19T08:47:46.564Z,26.70
2017-10-19T08:48:45.847Z,25.30
2017-10-19T08:49:46.805Z,25.50
2017-10-19T08:50:46.463Z,23.40
2017-10-19T08:51:46.804Z,24.30
2017-10-19T08:52:46.116Z,22.50
2017-10-19T08:53:46.331Z,22.40
2017-10-19T08:54:47.161Z,24.30
2017-10-19T08:55:46.278Z,22.30
2017-10-19T08:56:46.353Z,23.80
2017-10-19T08:57:46.832Z,23.80
2017-10-19T08:58:46.623Z,22.50
2017-10-19T08:59:46.745Z,23.20
2017-10-19T09:00:46.167Z,22.50
2017-10-19T09:01:46.343Z,22.20
2017-10-19T09:02:47.177Z,22.30
2017-10-19T09:03:46.614Z,23.20
2017-10-19T09:04:46.728Z,21.00
2017-10-19T09:05:46.306Z,21.50
2017-10-19T09:06:46.140Z,22.00
2017-10-19T09:07:46.840Z,22.10
2017-10-19T09:08:46.474Z,20.90
2017-10-19T09:09:46.299Z,22.30
2017-10-19T09:10:45.889Z,21.60
2017-10-19T09:11:46.378Z,22.00
2017-10-19T09:12:47.379Z,21.10
2017-10-19T09:13:46.154Z,20.80
2017-10-19T09:14:46.871Z,21.10
2017-10-19T09:15:46.764Z,21.20
2017-10-19T09:16:46.399Z,20.90
2017-10-19T09:17:45.931Z,20.40
2017-10-19T09:18:46.460Z,20.20
2017-10-19T09:19:47.071Z,20.20
2017-10-19T09:20:46.818Z,20.60
2017-10-19T09:21:46.132Z,20.30
2017-10-19T09:22:46.010Z,20.40
2017-10-19T09:23:47.169Z,19.30
2017-10-19T09:24:46.543Z,21.30
2017-10-19T09:25:47.043Z,19.10
2017-10-19T09:26:46.737Z,18.50
2017-10-19T09:27:46.347Z,18.40
2017-10-19T09:28:46.765Z,19.30
2017-10-19T09:29:46.256Z,19.30
2017-10-19T09:30:47.234Z,19.30
2017-10-19T09:31:46.850Z,18.80
2017-10-19T09:32:46.482Z,18.60
2017-10-19T09:33:46.200Z,19.40
2017-10-19T09:34:45.985Z,18.30
2017-10-19T09:35:46.663Z,18.60
2017-10-19T09:36:45.864Z,19.20
2017-10-19T09:37:46.166Z,18.50
2017-10-19T09:38:46.793Z,18.90
2017-10-19T09:39:46.282Z,19.50
2017-10-19T09:40:46.604Z,18.40
2017-10-19T09:41:45.797Z,19.20
2017-10-19T09:42:46.160Z,18.30
2017-10-19T09:43:46.529Z,19.20
2017-10-19T09:44:46.526Z,18.40
2017-10-19T09:45:45.583Z,19.20
2017-10-19T09:46:46.288Z,19.70
2017-10-19T09:47:46.320Z,19.40
2017-10-19T09:48:45.570Z,19.20
2017-10-19T09:49:45.612Z,18.60
2017-10-19T09:50:46.127Z,19.60
2017-10-19T09:51:46.979Z,19.90
2017-10-19T09:52:46.769Z,18.90
2017-10-19T09:53:46.389Z,18.60
2017-10-19T09:54:46.277Z,18.90
2017-10-19T09:55:46.960Z,19.90
2017-10-19T09:56:47.393Z,20.00
2017-10-19T09:57:46.497Z,19.20
2017-10-19T09:58:45.608Z,20.40
2017-10-19T09:59:45.830Z,18.80
2017-10-19T10:00:46.499Z,19.20
2017-10-19T10:01:46.772Z,18.30
2017-10-19T10:02:45.928Z,18.90
2017-10-19T10:03:46.358Z,18.40
2017-10-19T10:04:46.781Z,18.40
2017-10-19T10:05:46.350Z,19.50
2017-10-19T10:06:46.906Z,19.00
2017-10-19T10:07:46.202Z,19.10
2017-10-19T10:08:46.963Z,18.80
2017-10-19T10:09:46.544Z,19.60
2017-10-19T10:10:46.868Z,18.30
2017-10-19T10:11:46.476Z,18.40
2017-10-19T10:12:46.688Z,19.20
2017-10-19T10:13:46.208Z,18.40
2017-10-19T10:14:45.666Z,19.20
2017-10-19T10:15:46.242Z,19.30
2017-10-19T10:16:46.320Z,19.80
2017-10-19T10:17:47.002Z,19.90
2017-10-19T10:18:46.535Z,19.30
2017-10-19T10:19:45.624Z,19.00
2017-10-19T10:20:46.403Z,19.30
2017-10-19T10:21:46.888Z,19.10
2017-10-19T10:22:46.113Z,19.60
2017-10-19T10:23:46.273Z,19.70
2017-10-19T10:24:45.884Z,19.10
2017-10-19T10:25:45.619Z,19.90
2017-10-19T10:26:46.160Z,19.40
2017-10-19T10:27:45.652Z,19.40
2017-10-19T10:28:46.296Z,19.10
2017-10-19T10:29:46.930Z,20.10
2017-10-19T10:30:45.923Z,19.30
2017-10-19T10:31:46.190Z,19.20
2017-10-19T10:32:46.666Z,19.20
2017-10-19T10:33:46.018Z,19.90
2017-10-19T10:34:46.212Z,19.30
2017-10-19T10:35:47.895Z,19.90
2017-10-19T10:36:46.734Z,19.30
2017-10-19T10:37:46.346Z,19.80
2017-10-19T10:38:45.826Z,19.90
2017-10-19T10:39:46.311Z,19.80
2017-10-19T10:40:45.566Z,18.10
2017-10-19T10:41:45.618Z,19.80
2017-10-19T10:42:46.163Z,19.00
2017-10-19T10:43:46.759Z,19.40
2017-10-19T10:44:46.238Z,18.90
2017-10-19T10:45:46.622Z,18.30
2017-10-19T10:46:45.676Z,18.60
2017-10-19T10:47:46.630Z,18.30
2017-10-19T10:48:45.892Z,19.00
2017-10-19T10:49:46.103Z,17.70
2017-10-19T10:50:46.149Z,19.70
2017-10-19T10:51:46.566Z,18.30
2017-10-19T10:52:46.027Z,17.80
2017-10-19T10:53:46.440Z,19.50
2017-10-19T10:54:46.270Z,18.20
2017-10-19T10:55:46.789Z,19.20
2017-10-19T10:56:46.116Z,17.80
2017-10-19T10:57:46.651Z,18.00
2017-10-19T10:58:46.155Z,18.30
2017-10-19T10:59:46.516Z,18.00
2017-10-19T11:00:46.019Z,18.00
2017-10-19T11:01:46.660Z,18.10
2017-10-19T11:02:46.225Z,18.20
2017-10-19T11:03:46.682Z,18.00
2017-10-19T11:04:46.278Z,17.20
2017-10-19T11:05:46.381Z,17.30
2017-10-19T11:06:47.144Z,17.20
2017-10-19T11:07:46.773Z,16.60
2017-10-19T11:08:46.179Z,17.10
2017-10-19T11:09:46.477Z,17.20
2017-10-19T11:10:46.567Z,17.50
2017-10-19T11:11:46.002Z,17.30
2017-10-19T11:12:47.068Z,17.30
2017-10-19T11:13:46.809Z,17.60
2017-10-19T11:14:46.273Z,18.20
2017-10-19T11:15:46.303Z,17.30
2017-10-19T11:16:46.943Z,17.50
2017-10-19T11:17:46.559Z,18.00
2017-10-19T11:18:45.721Z,17.70
2017-10-19T11:19:45.879Z,18.00
2017-10-19T11:20:46.299Z,17.40
2017-10-19T11:21:46.873Z,16.30
2017-10-19T11:22:46.327Z,17.30
2017-10-19T11:23:46.734Z,17.90
2017-10-19T11:24:46.242Z,16.90
2017-10-19T11:25:46.329Z,17.40
2017-10-19T11:26:46.659Z,18.60
2017-10-19T11:27:46.429Z,17.10
2017-10-19T11:28:45.947Z,17.00
2017-10-19T11:29:46.454Z,17.80
2017-10-19T11:30:46.927Z,17.40
2017-10-19T11:31:46.007Z,17.40
2017-10-19T11:32:46.523Z,18.00
2017-10-19T11:33:45.582Z,18.60
2017-10-19T11:34:46.009Z,17.50
2017-10-19T11:35:45.937Z,17.10
2017-10-19T11:36:46.173Z,17.50
2017-10-19T11:37:46.978Z,17.20
2017-10-19T11:38:46.259Z,17.80
2017-10-19T11:39:45.568Z,18.00
2017-10-19T11:40:45.805Z,18.20
2017-10-19T11:41:45.991Z,31.20
2017-10-19T11:42:46.703Z,18.00
2017-10-19T11:43:46.297Z,17.90
2017-10-19T11:44:46.900Z,18.80
2017-10-19T11:45:46.504Z,18.70
2017-10-19T11:46:46.056Z,17.90
2017-10-19T11:47:47.023Z,18.40
2017-10-19T11:48:46.740Z,18.40
2017-10-19T11:49:46.177Z,17.10
2017-10-19T11:50:46.171Z,17.70
2017-10-19T11:51:46.220Z,17.30
2017-10-19T11:52:46.822Z,18.10
2017-10-19T11:53:46.381Z,17.10
2017-10-19T11:54:45.956Z,18.20
2017-10-19T11:55:46.373Z,17.60
2017-10-19T11:56:45.507Z,16.40
2017-10-19T11:57:45.671Z,17.30
2017-10-19T11:58:45.916Z,16.80
2017-10-19T11:59:47.336Z,18.20
2017-10-19T12:00:46.530Z,17.90
2017-10-19T12:01:46.119Z,17.80
2017-10-19T12:02:46.180Z,18.20
2017-10-19T12:03:46.687Z,18.30
2017-10-19T12:04:45.785Z,17.80
2017-10-19T12:05:46.177Z,17.30
2017-10-19T12:06:47.028Z,18.00
2017-10-19T12:07:46.596Z,17.60
2017-10-19T12:08:45.970Z,17.60
2017-10-19T12:09:46.754Z,18.00
2017-10-19T12:10:46.094Z,17.50
2017-10-19T12:11:46.087Z,18.80
2017-10-19T12:12:45.881Z,19.10
2017-10-19T12:13:46.537Z,18.00
2017-10-19T12:14:46.379Z,19.10
2017-10-19T12:15:45.697Z,18.70
2017-10-19T12:16:46.309Z,19.00
2017-10-19T12:17:47.088Z,18.70
2017-10-19T12:18:47.683Z,18.10
2017-10-19T12:19:45.864Z,19.20
2017-10-19T12:20:46.300Z,17.70
2017-10-19T12:21:45.932Z,18.60
2017-10-19T12:22:46.723Z,18.50
2017-10-19T12:23:46.333Z,18.00
2017-10-19T12:24:45.900Z,17.10
2017-10-19T12:25:46.469Z,17.10
2017-10-19T12:26:46.236Z,17.10
2017-10-19T12:27:46.899Z,17.20
2017-10-19T12:28:46.529Z,18.20
2017-10-19T12:29:46.255Z,16.60
2017-10-19T12:30:45.923Z,18.00
2017-10-19T12:31:46.234Z,18.30
2017-10-19T12:32:45.921Z,17.80
2017-10-19T12:33:46.622Z,17.90
2017-10-19T12:34:46.952Z,18.50
2017-10-19T12:35:46.500Z,18.20
2017-10-19T12:36:46.430Z,17.30
2017-10-19T12:37:45.806Z,17.90
2017-10-19T12:38:45.944Z,17.60
2017-10-19T12:39:46.516Z,17.80
2017-10-19T12:40:45.798Z,17.20
2017-10-19T12:41:46.302Z,16.10
2017-10-19T12:42:46.271Z,16.00
2017-10-19T12:43:46.726Z,17.70
2017-10-19T12:44:46.300Z,17.90
2017-10-19T12:45:45.639Z,17.20
2017-10-19T12:46:46.101Z,16.90
2017-10-19T12:47:46.866Z,17.10
2017-10-19T12:48:46.764Z,17.00
2017-10-19T12:49:46.356Z,18.10
2017-10-19T12:50:45.818Z,18.20